Time;durP1;ratioP1;P1;durP2;ratioP2;P2;SDS_P1;SDS_P2;PMS_P1;PMS_P2;Temp;Humidity;BMP_temperature;BMP_pressure;BME280_temperature;BME280_humidity;BME280_pressure;Samples;Min_cycle;Max_cycle;Signal;HPM_P1;HPM_P2
2022/08/14 00:01:26;;;;;;;6.28;4.90;;;;;;;24.81;50.32;101289.59;5179882;28;20433;-49
2022/08/14 00:03:59;;;;;;;7.38;5.78;;;;;;;24.70;50.46;101274.19;5180480;28;20518;-51
2022/08/14 00:06:32;;;;;;;5.90;5.30;;;;;;;24.79;50.62;101297.13;5177702;28;20482;-48
2022/08/14 00:09:05;;;;;;;7.67;5.27;;;;;;;24.77;50.41;101293.00;5182086;28;20425;-52
2022/08/14 00:11:37;;;;;;;7.45;6.28;;;;;;;24.75;50.59;101290.53;5179746;28;20444;-48
2022/08/14 00:14:10;;;;;;;8.13;5.85;;;;;;;24.73;50.44;101281.84;5181139;28;20535;-48
2022/08/14 00:16:42;;;;;;;8.65;6.72;;;;;;;24.74;50.52;101285.34;5185322;28;20440;-51
2022/08/14 00:19:15;;;;;;;7.18;5.80;;;;;;;24.70;50.64;101282.31;5185169;28;20981;-51
2022/08/14 00:21:49;;;;;;;6.40;5.70;;;;;;;24.65;50.78;101276.75;5181904;28;20411;-50
2022/08/14 00:24:22;;;;;;;8.05;5.80;;;;;;;24.58;51.03;101274.19;5182356;28;20766;-51
2022/08/14 00:26:55;;;;;;;6.25;5.20;;;;;;;24.55;51.01;101268.41;5180711;28;20435;-51
2022/08/14 00:29:29;;;;;;;8.38;6.13;;;;;;;24.49;51.25;101270.16;5186127;28;20963;-52
2022/08/14 00:32:01;;;;;;;10.25;6.40;;;;;;;24.48;51.19;101273.13;5182430;28;20438;-50
2022/08/14 00:34:51;;;;;;;8.43;6.82;;;;;;;24.48;51.10;101262.31;5183955;28;20433;-49
2022/08/14 00:37:25;;;;;;;7.90;5.70;;;;;;;24.43;51.08;101257.59;5181738;28;20533;-51
2022/08/14 00:39:58;;;;;;;8.93;5.57;;;;;;;24.45;51.11;101258.19;5189261;28;20507;-50
2022/08/14 00:42:30;;;;;;;10.20;5.90;;;;;;;24.45;50.95;101257.38;5183980;28;20924;-46
2022/08/14 00:45:03;;;;;;;6.20;5.38;;;;;;;24.26;50.94;101227.72;5182731;28;20725;-51
2022/08/14 00:47:35;;;;;;;8.60;6.07;;;;;;;24.39;50.95;101249.09;5183814;28;20507;-48
2022/08/14 00:50:10;;;;;;;8.25;5.97;;;;;;;24.35;50.94;101236.31;5183177;28;20447;-49
2022/08/14 00:52:46;;;;;;;7.65;5.80;;;;;;;24.35;50.88;101239.03;5182314;28;20747;-49
2022/08/14 00:55:20;;;;;;;6.45;5.63;;;;;;;24.35;50.73;101247.13;5181688;28;20437;-49
2022/08/14 01:00:40;;;;;;;8.00;5.82;;;;;;;24.29;50.61;101248.84;5180804;28;20708;-48
2022/08/14 01:03:18;;;;;;;10.40;5.97;;;;;;;24.25;50.71;101236.03;5182506;28;20765;-49
2022/08/14 01:05:52;;;;;;;7.97;6.05;;;;;;;24.23;50.58;101232.78;5182684;28;20758;-51
2022/08/14 01:08:28;;;;;;;8.18;6.60;;;;;;;24.12;50.55;101223.56;5180988;28;20816;-49
2022/08/14 01:11:01;;;;;;;11.38;6.10;;;;;;;24.20;50.48;101228.66;5183942;28;20429;-51
2022/08/14 01:13:37;;;;;;;9.63;6.57;;;;;;;24.19;50.64;101229.72;5184737;28;20417;-52
2022/08/14 01:16:14;;;;;;;10.87;6.87;;;;;;;24.16;50.48;101224.78;5181868;28;20540;-49
2022/08/14 01:21:41;;;;;;;9.82;6.75;;;;;;;23.74;50.56;101180.75;5185928;28;20749;-52
2022/08/14 01:24:14;;;;;;;12.93;6.90;;;;;;;24.05;50.60;101214.75;5185112;28;21162;-49
2022/08/14 01:26:46;;;;;;;10.73;6.45;;;;;;;24.04;50.56;101213.94;5172628;28;20410;-50
2022/08/14 01:29:20;;;;;;;9.53;7.23;;;;;;;24.02;50.76;101210.63;5182143;28;20427;-51
2022/08/14 01:31:53;;;;;;;7.65;6.03;;;;;;;23.99;50.92;101202.19;5183492;28;20893;-46
2022/08/14 01:34:25;;;;;;;9.50;6.78;;;;;;;23.95;50.97;101203.72;5190801;28;20712;-50
2022/08/14 01:37:01;;;;;;;10.93;6.93;;;;;;;23.89;50.97;101195.47;5185282;28;20903;-50
2022/08/14 01:39:35;;;;;;;9.18;6.50;;;;;;;23.87;51.00;101194.88;5179229;28;20457;-50
2022/08/14 01:42:07;;;;;;;12.57;6.75;;;;;;;23.84;51.13;101191.81;5174859;28;20417;-52
2022/08/14 01:44:40;;;;;;;9.75;6.30;;;;;;;23.81;51.11;101187.69;5178431;28;20434;-49
2022/08/14 01:47:12;;;;;;;9.25;6.97;;;;;;;23.77;51.15;101186.50;5182637;28;25174;-48
2022/08/14 01:49:45;;;;;;;10.57;7.13;;;;;;;23.75;51.26;101179.69;5178748;28;20474;-50
2022/08/14 01:52:20;;;;;;;10.35;7.13;;;;;;;23.71;51.27;101176.66;5185194;28;20456;-51
2022/08/14 01:54:53;;;;;;;9.97;7.27;;;;;;;23.64;51.34;101170.50;5181156;28;20830;-40
2022/08/14 01:57:25;;;;;;;10.52;7.38;;;;;;;23.68;51.33;101179.75;5181856;28;20418;-50
2022/08/14 01:59:57;;;;;;;10.82;7.70;;;;;;;23.67;51.39;101176.25;5185050;28;20428;-50
2022/08/14 02:02:30;;;;;;;10.15;7.85;;;;;;;23.64;51.40;101175.88;5183946;28;20421;-51
2022/08/14 02:05:03;;;;;;;9.05;7.57;;;;;;;23.61;51.54;101171.78;5180704;28;20421;-52
2022/08/14 02:07:36;;;;;;;10.40;7.40;;;;;;;23.60;51.59;101166.59;5183457;28;20429;-52
2022/08/14 02:10:10;;;;;;;10.82;8.00;;;;;;;23.58;51.36;101171.41;5181279;28;20902;-53
2022/08/14 02:12:43;;;;;;;13.52;7.88;;;;;;;23.53;51.57;101166.69;5180388;28;21757;-51
2022/08/14 02:15:20;;;;;;;11.00;7.90;;;;;;;23.48;51.63;101162.00;5182542;28;20891;-46
2022/08/14 02:17:53;;;;;;;11.30;7.85;;;;;;;23.43;51.80;101159.13;5182721;28;20433;-38
2022/08/14 02:20:25;;;;;;;9.07;7.82;;;;;;;23.43;52.01;101159.13;5179184;28;20424;-49
2022/08/14 02:22:59;;;;;;;12.65;8.05;;;;;;;23.41;51.93;101160.41;5178359;28;20433;-53
2022/08/14 02:25:31;;;;;;;8.40;7.32;;;;;;;23.37;52.03;101161.94;5179961;28;20755;-51
2022/08/14 02:28:04;;;;;;;8.48;7.57;;;;;;;23.33;52.09;101158.88;5180414;28;20421;-52
2022/08/14 02:30:38;;;;;;;11.48;7.97;;;;;;;23.28;52.17;101161.41;5180213;28;20428;-47
2022/08/14 02:33:10;;;;;;;11.77;8.73;;;;;;;23.25;52.26;101172.63;5180586;28;20450;-49
2022/08/14 02:35:43;;;;;;;10.20;7.90;;;;;;;23.21;52.38;101160.66;5181058;28;25166;-47
2022/08/14 02:38:16;;;;;;;11.10;8.38;;;;;;;23.17;52.39;101151.41;5178736;28;20873;-47
2022/08/14 02:40:49;;;;;;;13.13;8.53;;;;;;;23.15;52.54;101153.50;5181158;28;20416;-53
2022/08/14 02:43:21;;;;;;;13.25;8.32;;;;;;;23.15;52.41;101164.25;5183608;28;20779;-51
2022/08/14 02:45:53;;;;;;;9.77;8.77;;;;;;;23.02;52.70;101144.50;5177023;28;21073;-52
2022/08/14 02:48:30;;;;;;;8.85;7.95;;;;;;;23.08;52.41;101150.88;5179300;28;20741;-50
2022/08/14 02:51:07;;;;;;;9.93;8.60;;;;;;;23.08;52.47;101150.06;5182834;28;20849;-53
2022/08/14 02:53:45;;;;;;;12.15;9.32;;;;;;;23.06;52.57;101149.44;5181087;28;20814;-55
2022/08/14 02:56:19;;;;;;;10.65;8.85;;;;;;;23.03;52.64;101148.03;5178603;28;20945;-44
2022/08/14 02:58:52;;;;;;;12.10;9.13;;;;;;;22.96;52.87;101145.41;5180014;28;20455;-51
2022/08/14 03:01:27;;;;;;;11.13;8.68;;;;;;;22.92;52.91;101144.19;5175019;28;20941;-52
2022/08/14 03:04:00;;;;;;;12.73;9.30;;;;;;;22.91;52.96;101144.41;5180033;28;20920;-53
2022/08/14 03:06:33;;;;;;;12.27;9.55;;;;;;;22.88;53.00;101137.59;5178380;28;20786;-49
2022/08/14 03:09:07;;;;;;;10.98;9.25;;;;;;;22.85;53.13;101143.41;5178009;28;20426;-50
2022/08/14 03:15:25;;;;;;;15.60;9.77;;;;;;;22.77;53.29;101133.78;5183516;28;20421;-48
2022/08/14 03:17:58;;;;;;;11.13;9.18;;;;;;;22.73;53.63;101126.34;5179422;28;20451;-47
2022/08/14 03:20:30;;;;;;;12.18;10.05;;;;;;;22.52;53.38;101093.44;5179026;28;20443;-52
2022/08/14 03:23:03;;;;;;;11.40;10.20;;;;;;;22.72;53.60;101130.09;5179464;28;20762;-53
2022/08/14 03:25:37;;;;;;;12.40;9.60;;;;;;;22.69;53.74;101130.56;5180067;28;20442;-50
2022/08/14 03:28:11;;;;;;;13.02;9.45;;;;;;;22.68;53.90;101126.22;5178178;28;20873;-50
2022/08/14 03:30:43;;;;;;;10.80;9.68;;;;;;;22.65;53.81;101118.59;5174807;28;20919;-51
2022/08/14 03:33:16;;;;;;;11.60;10.38;;;;;;;22.62;53.95;101119.03;5178678;28;20869;-50
2022/08/14 03:35:50;;;;;;;13.20;10.13;;;;;;;22.58;53.87;101115.97;5182318;28;20599;-48
2022/08/14 03:38:22;;;;;;;14.48;9.82;;;;;;;22.56;53.85;101116.19;5177278;28;20773;-49
2022/08/14 03:40:56;;;;;;;12.00;10.65;;;;;;;22.55;54.04;101111.84;5179230;28;21309;-49
2022/08/14 03:43:28;;;;;;;12.65;10.57;;;;;;;22.54;53.99;101112.88;5181752;28;20918;-49
2022/08/14 03:46:01;;;;;;;13.50;10.43;;;;;;;22.50;54.34;101110.84;5184449;28;20431;-46
2022/08/14 03:48:33;;;;;;;14.40;10.40;;;;;;;22.46;54.20;101105.09;5180863;28;20864;-52
2022/08/14 03:51:07;;;;;;;11.85;10.18;;;;;;;22.40;54.42;101099.78;5184638;28;20909;-45
2022/08/14 03:53:43;;;;;;;14.52;10.07;;;;;;;22.41;54.48;101102.25;5182808;28;20733;-51
2022/08/14 03:56:18;;;;;;;14.90;10.80;;;;;;;22.37;54.63;101106.44;5186227;28;20782;-52
2022/08/14 03:58:53;;;;;;;12.63;10.93;;;;;;;22.35;54.68;101103.13;5184205;28;20833;-51
2022/08/14 04:01:26;;;;;;;15.02;11.13;;;;;;;22.32;54.75;101104.38;5180358;28;20416;-60
2022/08/14 04:04:04;;;;;;;14.93;11.68;;;;;;;22.30;54.79;101097.59;5183786;28;20823;-50
2022/08/14 04:06:38;;;;;;;12.55;10.65;;;;;;;22.22;54.98;101087.94;5185817;28;20816;-51
2022/08/14 04:09:11;;;;;;;13.40;11.10;;;;;;;22.25;55.06;101102.81;5182638;28;20865;-50
2022/08/14 04:11:45;;;;;;;12.25;10.93;;;;;;;22.23;55.10;101102.22;5186287;28;20472;-47
2022/08/14 04:14:17;;;;;;;14.55;10.98;;;;;;;22.19;55.13;101092.94;5179845;28;20929;-44
2022/08/14 04:16:49;;;;;;;12.90;10.57;;;;;;;22.18;55.24;101096.69;5184663;28;20837;-51
2022/08/14 04:19:22;;;;;;;12.82;10.38;;;;;;;22.17;55.32;101098.53;5184999;28;20440;-46
2022/08/14 04:21:55;;;;;;;13.73;11.20;;;;;;;21.92;55.29;101065.41;5181475;28;20905;-50
2022/08/14 04:24:27;;;;;;;14.18;11.65;;;;;;;22.16;55.48;101094.19;5179461;28;20457;-49
2022/08/14 04:27:01;;;;;;;13.07;11.27;;;;;;;22.16;55.50;101093.34;5183052;28;20472;-52
2022/08/14 04:29:37;;;;;;;12.15;10.63;;;;;;;22.15;55.41;101091.72;5182590;28;20947;-51
2022/08/14 04:32:11;;;;;;;13.48;10.55;;;;;;;22.15;55.58;101091.72;5186798;28;20794;-53
2022/08/14 04:34:43;;;;;;;14.03;10.87;;;;;;;22.14;55.73;101108.88;5182471;28;20458;-53
2022/08/14 04:45:47;;;;;;;13.98;11.65;;;;;;;22.05;55.90;101076.03;5180633;28;20456;-47
2022/08/14 04:48:19;;;;;;;13.70;11.02;;;;;;;21.89;55.97;101050.53;5180761;28;20841;-50
2022/08/14 04:50:54;;;;;;;16.77;11.43;;;;;;;22.10;55.96;101095.84;5183300;28;20487;-51
2022/08/14 04:53:29;;;;;;;15.63;11.85;;;;;;;22.07;56.09;101092.78;5180920;28;20508;-51
2022/08/14 04:56:02;;;;;;;12.48;10.60;;;;;;;22.07;56.16;101093.59;5181041;28;20499;-50
2022/08/14 04:58:36;;;;;;;13.38;11.45;;;;;;;22.07;56.26;101096.31;5180494;28;20435;-49
2022/08/14 05:01:11;;;;;;;15.97;11.27;;;;;;;22.07;56.34;101099.00;5184319;28;20989;-50
2022/08/14 05:03:44;;;;;;;13.80;11.10;;;;;;;22.09;56.29;101088.03;5181032;28;20981;-52
2022/08/14 05:06:17;;;;;;;15.90;11.73;;;;;;;22.10;56.40;101090.47;5179966;28;20976;-48
2022/08/14 05:08:49;;;;;;;13.97;11.50;;;;;;;22.13;56.49;101080.34;5182311;28;21027;-52
2022/08/14 05:11:21;;;;;;;12.65;10.80;;;;;;;22.17;56.38;101089.63;5184505;28;20433;-48
2022/08/14 05:13:56;;;;;;;16.63;11.90;;;;;;;22.17;56.40;101078.88;5182040;28;22113;-52
2022/08/14 05:16:30;;;;;;;14.35;11.50;;;;;;;22.17;56.54;101081.56;5179301;28;20850;-50
2022/08/14 05:19:03;;;;;;;14.13;11.10;;;;;;;22.18;56.63;101075.16;5177553;28;20433;-48
2022/08/14 05:21:35;;;;;;;14.20;11.07;;;;;;;22.21;56.67;101090.84;5183056;28;20924;-50
2022/08/14 05:24:10;;;;;;;15.95;11.57;;;;;;;22.25;56.69;101075.91;5180540;28;20557;-50
2022/08/14 05:26:45;;;;;;;13.10;11.48;;;;;;;22.31;56.64;101069.66;5181770;28;20784;-49
2022/08/14 05:29:19;;;;;;;15.00;12.32;;;;;;;22.35;56.59;101068.16;5182977;28;20823;-52
2022/08/14 05:31:55;;;;;;;13.48;11.57;;;;;;;22.36;56.69;101067.13;5181046;28;20412;-49
2022/08/14 05:34:28;;;;;;;13.73;11.38;;;;;;;22.40;56.75;101062.94;5189376;28;20499;-51
2022/08/14 05:37:01;;;;;;;14.75;11.73;;;;;;;22.45;56.81;101060.41;5182705;28;20900;-49
2022/08/14 05:39:34;;;;;;;15.85;11.75;;;;;;;22.49;56.87;101053.53;5181119;28;20421;-49
2022/08/14 05:42:07;;;;;;;12.70;10.93;;;;;;;22.54;56.68;101059.03;5182319;28;21011;-49
2022/08/14 05:44:40;;;;;;;16.83;12.02;;;;;;;22.59;56.58;101062.94;5182134;28;20429;-48
2022/08/14 05:47:13;;;;;;;14.73;11.90;;;;;;;22.62;56.71;101054.44;5181763;28;20889;-49
2022/08/14 05:49:47;;;;;;;14.75;11.30;;;;;;;22.69;56.69;101055.16;5180369;28;20714;-55
2022/08/14 05:52:19;;;;;;;16.80;11.27;;;;;;;22.74;56.57;101050.75;5178328;28;20864;-49
2022/08/14 05:54:51;;;;;;;13.70;10.63;;;;;;;23.22;56.05;101046.44;5180614;28;20873;-47
2022/08/14 05:57:24;;;;;;;14.10;10.33;;;;;;;24.63;54.40;101057.44;5175963;28;20442;-46
2022/08/14 05:59:57;;;;;;;13.73;9.65;;;;;;;25.79;52.97;101050.97;5185203;28;20777;-49
2022/08/14 06:02:31;;;;;;;11.10;9.50;;;;;;;26.37;52.31;101047.00;5180477;28;20422;-45
2022/08/14 06:05:05;;;;;;;12.57;8.30;;;;;;;27.18;51.34;101041.00;5180663;28;20958;-50
2022/08/14 06:07:38;;;;;;;12.25;9.18;;;;;;;27.88;50.23;101040.03;5176035;28;20455;-49
2022/08/14 06:10:11;;;;;;;10.07;8.40;;;;;;;28.67;48.88;101043.75;5183022;28;20520;-49
2022/08/14 06:12:43;;;;;;;11.90;8.27;;;;;;;29.42;47.93;101039.63;5180147;28;22530;-48
2022/08/14 06:15:17;;;;;;;11.73;7.18;;;;;;;30.27;46.65;101041.75;5178908;28;22822;-49
2022/08/14 06:17:51;;;;;;;10.68;7.97;;;;;;;31.30;45.13;101041.28;5179709;28;20820;-49
2022/08/14 06:20:24;;;;;;;10.18;7.13;;;;;;;32.32;43.80;101045.88;5181768;28;20745;-51
2022/08/14 06:22:57;;;;;;;9.00;6.72;;;;;;;33.15;42.66;101041.03;5179119;28;20421;-52
2022/08/14 06:25:31;;;;;;;10.35;6.90;;;;;;;33.90;41.31;101040.06;5180656;28;20430;-48
2022/08/14 06:28:04;;;;;;;8.70;6.50;;;;;;;34.31;40.38;101053.84;5181694;28;20460;-47
2022/08/14 06:30:38;;;;;;;9.88;7.10;;;;;;;34.94;39.24;101049.53;5179407;28;20449;-50
2022/08/14 06:33:11;;;;;;;9.50;6.10;;;;;;;35.47;38.47;101045.31;5181402;28;20434;-51
2022/08/14 06:35:43;;;;;;;7.20;6.00;;;;;;;35.72;38.10;101039.19;5181258;28;20870;-51
2022/08/14 06:38:17;;;;;;;9.18;6.22;;;;;;;36.18;37.13;101046.22;5177475;28;20976;-50
2022/08/14 06:40:51;;;;;;;7.40;5.95;;;;;;;36.69;36.18;101043.94;5180322;28;20424;-49
2022/08/14 06:43:23;;;;;;;8.45;6.18;;;;;;;36.55;35.88;101049.59;5180156;28;20714;-50
2022/08/14 06:45:57;;;;;;;8.38;6.30;;;;;;;36.51;35.75;101054.09;5180992;28;20421;-49
2022/08/14 06:48:29;;;;;;;8.15;6.63;;;;;;;36.74;35.39;101048.50;5180525;28;20420;-48
2022/08/14 06:51:02;;;;;;;7.55;6.30;;;;;;;37.30;34.50;101052.28;5181831;28;20718;-51
2022/08/14 06:53:34;;;;;;;6.97;5.80;;;;;;;37.59;33.83;101055.16;5181695;28;20431;-49
2022/08/14 06:56:07;;;;;;;7.85;6.32;;;;;;;37.86;33.49;101053.16;5178706;28;20425;-51
2022/08/14 06:58:40;;;;;;;7.18;5.32;;;;;;;38.07;32.96;101053.28;5172708;28;20561;-50
2022/08/14 07:06:54;;;;;;;7.20;5.90;;;;;;;38.59;31.70;101041.16;5171515;28;20423;-39
2022/08/14 07:09:27;;;;;;;6.10;5.50;;;;;;;38.60;31.42;101037.28;5182166;28;20433;-51
2022/08/14 07:12:00;;;;;;;8.20;5.72;;;;;;;38.66;31.33;101027.66;5174346;28;20742;-51
2022/08/14 07:14:32;;;;;;;7.87;6.30;;;;;;;38.69;31.14;101030.53;5180018;28;20561;-48
2022/08/14 07:17:06;;;;;;;7.85;5.63;;;;;;;38.69;31.02;101035.25;5179054;28;20421;-50
2022/08/14 07:19:39;;;;;;;7.05;5.78;;;;;;;38.80;30.72;101024.63;5172850;28;20430;-50
2022/08/14 07:22:11;;;;;;;11.60;6.57;;;;;;;38.70;30.70;101025.81;5174992;28;20419;-48
2022/08/14 07:25:18;;;;;;;7.97;5.30;;;;;;;38.59;30.53;101035.63;5183395;28;20882;-48
2022/08/14 07:27:50;;;;;;;7.70;5.30;;;;;;;38.70;30.29;101031.34;5184194;28;20758;-50
2022/08/14 07:30:23;;;;;;;6.00;5.40;;;;;;;38.66;30.12;101024.91;5184267;28;20416;-49
2022/08/14 07:32:57;;;;;;;8.30;5.82;;;;;;;38.09;30.58;101015.13;5178124;28;20413;-52
2022/08/14 07:35:30;;;;;;;8.13;5.93;;;;;;;37.65;30.79;101013.66;5169133;28;20890;-50
2022/08/14 07:38:03;;;;;;;9.77;5.63;;;;;;;37.32;31.03;101022.44;5171367;28;20433;-51
2022/08/14 07:40:35;;;;;;;7.93;5.63;;;;;;;37.03;30.92;101012.91;5172799;28;20963;-47
2022/08/14 07:43:08;;;;;;;9.07;5.95;;;;;;;36.78;31.16;101008.19;5178011;28;20735;-48
2022/08/14 07:45:41;;;;;;;7.35;5.25;;;;;;;36.70;31.07;101012.53;5184782;28;20491;-47
2022/08/14 07:48:14;;;;;;;9.13;5.85;;;;;;;36.56;31.33;101007.19;5195768;28;20423;-48
2022/08/14 07:50:49;;;;;;;6.10;5.50;;;;;;;36.44;31.18;101010.53;5186541;28;20401;-50
2022/08/14 07:53:22;;;;;;;6.70;5.10;;;;;;;36.67;31.21;101011.25;5181997;28;20590;-49
2022/08/14 07:55:54;;;;;;;7.20;5.55;;;;;;;36.99;30.46;101011.94;5179120;28;20746;-43
2022/08/14 07:58:27;;;;;;;8.40;6.03;;;;;;;36.98;30.56;101013.06;5176944;28;20436;-50
2022/08/14 08:01:01;;;;;;;8.05;6.03;;;;;;;36.76;30.92;101019.50;5167584;28;20979;-51
2022/08/14 08:03:37;;;;;;;9.45;5.55;;;;;;;36.38;31.30;101019.25;5167432;28;20514;-51
2022/08/14 08:06:09;;;;;;;8.75;5.60;;;;;;;36.08;31.44;101027.28;5171007;28;20474;-49
2022/08/14 08:08:43;;;;;;;11.45;6.38;;;;;;;35.86;31.72;101027.28;5171032;28;20600;-46
2022/08/14 08:11:18;;;;;;;7.70;5.80;;;;;;;35.96;31.72;101018.78;5179539;28;20402;-48
2022/08/14 08:13:51;;;;;;;10.00;5.68;;;;;;;35.98;31.45;101005.50;5172887;28;20721;-50
2022/08/14 08:16:24;;;;;;;7.53;5.60;;;;;;;35.83;31.47;101003.97;5171284;28;20878;-49
2022/08/14 08:18:57;;;;;;;6.15;5.47;;;;;;;35.61;31.70;100993.84;5178970;28;20979;-47
2022/08/14 08:21:30;;;;;;;7.00;5.47;;;;;;;35.37;31.82;100993.34;5173504;28;20759;-50
2022/08/14 08:24:03;;;;;;;8.65;6.20;;;;;;;35.10;32.25;100984.94;5128740;28;1844347;-49
2022/08/14 08:26:35;;;;;;;11.45;6.47;;;;;;;34.87;32.40;100988.75;5197097;28;20791;-47
2022/08/14 08:29:08;;;;;;;7.07;5.60;;;;;;;34.81;32.64;100985.34;5177210;28;20456;-46
2022/08/14 08:31:49;;;;;;;6.55;5.60;;;;;;;34.96;32.28;100983.34;5185028;28;20417;-48
2022/08/14 08:34:23;;;;;;;9.02;5.85;;;;;;;35.08;32.32;100980.91;5167967;28;20430;-50
2022/08/14 08:36:58;;;;;;;7.80;5.73;;;;;;;34.73;32.59;100979.78;5174090;28;20708;-48
2022/08/14 08:39:31;;;;;;;15.10;6.35;;;;;;;34.30;32.93;100978.19;5181893;28;20520;-50
2022/08/14 08:42:03;;;;;;;6.22;5.47;;;;;;;34.06;33.36;100974.84;5179237;28;20426;-47
2022/08/14 08:44:35;;;;;;;7.90;6.00;;;;;;;33.86;33.16;100967.81;5190818;28;20427;-46
2022/08/14 08:47:08;;;;;;;7.47;5.57;;;;;;;33.56;33.66;100969.19;5193404;28;20438;-46
2022/08/14 08:49:43;;;;;;;8.68;5.70;;;;;;;33.39;33.44;100975.22;5183089;28;20416;-48
2022/08/14 08:52:16;;;;;;;8.15;5.40;;;;;;;33.48;33.50;100962.47;5186529;28;20421;-46
2022/08/14 08:54:54;;;;;;;11.95;5.88;;;;;;;33.32;33.20;100936.44;5183282;28;20926;-47
2022/08/14 08:57:26;;;;;;;6.97;5.32;;;;;;;33.58;33.06;100970.53;5185432;28;20864;-49
2022/08/14 09:00:02;;;;;;;7.63;5.07;;;;;;;33.50;33.15;100971.22;5176800;28;20429;-47
2022/08/14 09:02:34;;;;;;;7.05;5.32;;;;;;;33.50;33.24;100982.97;5182864;28;20419;-49
2022/08/14 09:05:08;;;;;;;9.50;5.27;;;;;;;33.44;33.00;100986.88;5185873;28;20876;-49
2022/08/14 09:07:41;;;;;;;7.50;5.20;;;;;;;33.21;33.08;100979.63;5183284;28;20743;-49
2022/08/14 09:10:13;;;;;;;7.60;5.10;;;;;;;33.11;33.33;100977.88;5186939;28;20902;-49
2022/08/14 09:12:47;;;;;;;6.53;5.13;;;;;;;33.14;33.23;100984.63;5191986;28;20493;-48
2022/08/14 09:15:20;;;;;;;6.88;4.53;;;;;;;33.08;33.28;100975.72;5197959;28;20805;-48
2022/08/14 09:17:52;;;;;;;6.28;5.10;;;;;;;32.95;33.28;100988.22;5194433;28;20564;-53
2022/08/14 09:20:26;;;;;;;10.10;5.20;;;;;;;32.96;33.34;100976.16;5194535;28;20867;-47
2022/08/14 09:22:59;;;;;;;7.10;5.45;;;;;;;32.83;33.52;100969.50;5198559;28;20431;-49
2022/08/14 09:25:32;;;;;;;6.35;4.90;;;;;;;32.79;33.45;100962.16;5173934;28;20588;-48
2022/08/14 09:28:05;;;;;;;6.72;5.63;;;;;;;32.68;33.30;100955.22;5170094;28;20427;-45
2022/08/14 09:30:41;;;;;;;7.47;5.25;;;;;;;32.63;33.63;100941.63;5171524;28;20414;-46
2022/08/14 09:33:44;;;;;;;6.30;5.20;;;;;;;32.76;33.19;100952.63;5171869;28;20418;-48
2022/08/14 09:36:50;;;;;;;6.43;5.18;;;;;;;32.73;33.25;100953.22;5183415;28;20403;-46
2022/08/14 09:39:46;;;;;;;6.63;4.70;;;;;;;32.52;33.57;100947.25;5185461;28;20805;-49
2022/08/14 09:42:34;;;;;;;9.23;5.47;;;;;;;32.52;33.56;100952.72;5186226;28;20840;-48
2022/08/14 09:45:15;;;;;;;8.00;5.15;;;;;;;32.44;33.63;100950.63;5193540;28;20423;-49
2022/08/14 09:47:51;;;;;;;9.90;6.35;;;;;;;32.33;33.71;100938.16;5189310;28;20906;-48
2022/08/14 09:50:28;;;;;;;7.20;5.35;;;;;;;32.40;33.61;100938.63;5182659;28;20443;-49
2022/08/14 09:53:05;;;;;;;9.27;5.55;;;;;;;32.57;33.60;100930.75;5188977;28;21062;-49
2022/08/14 09:55:37;;;;;;;7.45;5.45;;;;;;;32.71;33.36;100938.25;5189257;28;20435;-46
2022/08/14 09:58:13;;;;;;;8.38;5.63;;;;;;;32.52;33.83;100930.84;5183499;28;20467;-46
2022/08/14 10:00:49;;;;;;;11.15;6.03;;;;;;;32.37;33.87;100922.81;5180315;28;20414;-49
2022/08/14 10:03:32;;;;;;;9.13;5.97;;;;;;;32.34;34.12;100924.22;5181382;28;20419;-47
2022/08/14 10:06:12;;;;;;;8.65;5.82;;;;;;;32.34;33.89;100907.00;5169043;28;20433;-50
2022/08/14 10:08:49;;;;;;;6.90;5.60;;;;;;;32.36;33.80;100910.25;5182378;28;20909;-48
2022/08/14 10:11:26;;;;;;;7.70;5.70;;;;;;;32.39;34.05;100912.38;5178191;28;20658;-48
2022/08/14 10:14:11;;;;;;;8.50;6.20;;;;;;;32.49;33.81;100909.56;5196579;28;20408;-48
2022/08/14 10:16:46;;;;;;;7.87;5.57;;;;;;;32.67;33.63;100912.56;5201277;28;20860;-46
2022/08/14 10:19:22;;;;;;;10.32;6.43;;;;;;;33.03;33.35;100897.25;5188493;28;20441;-47
2022/08/14 10:22:00;;;;;;;9.40;6.10;;;;;;;33.18;33.18;100892.66;5169476;28;20421;-45
2022/08/14 10:24:40;;;;;;;7.95;5.78;;;;;;;33.18;33.28;100893.44;5173852;28;20424;-46
2022/08/14 10:27:17;;;;;;;8.32;6.35;;;;;;;33.13;33.28;100889.97;5174353;28;20451;-44
2022/08/14 10:29:53;;;;;;;10.32;6.85;;;;;;;33.13;33.34;100889.97;5171575;28;20499;-47
2022/08/14 10:32:25;;;;;;;8.32;5.45;;;;;;;33.18;33.56;100887.16;5184792;28;20767;-44
2022/08/14 10:35:08;;;;;;;7.20;5.55;;;;;;;33.28;33.53;100873.28;5170938;28;20872;-47
2022/08/14 10:37:45;;;;;;;7.32;5.70;;;;;;;33.24;33.27;100875.00;5172696;28;21049;-48
2022/08/14 10:40:27;;;;;;;8.55;5.47;;;;;;;33.22;33.49;100885.44;5176662;28;20958;-48
2022/08/14 10:43:01;;;;;;;9.13;6.27;;;;;;;33.08;33.63;100881.84;5173609;28;20427;-46
2022/08/14 10:45:35;;;;;;;6.90;5.20;;;;;;;33.06;33.53;100866.56;5174418;28;21004;-48
2022/08/14 10:48:16;;;;;;;6.65;5.70;;;;;;;33.12;33.33;100869.22;5183415;28;20425;-48
2022/08/14 10:50:50;;;;;;;7.15;5.68;;;;;;;33.12;33.77;100864.53;5191419;28;20487;-45
2022/08/14 10:53:36;;;;;;;6.53;5.55;;;;;;;33.15;33.59;100871.34;5188502;28;20775;-47
2022/08/14 10:56:13;;;;;;;10.48;5.90;;;;;;;33.13;33.45;100852.47;5185527;28;20416;-48
2022/08/14 10:58:45;;;;;;;6.55;5.70;;;;;;;33.14;33.56;100845.06;5188594;28;20430;-49
2022/08/14 11:01:17;;;;;;;8.77;5.93;;;;;;;33.36;33.31;100864.41;5179706;28;20430;-52
2022/08/14 11:03:50;;;;;;;7.78;5.88;;;;;;;33.39;33.62;100854.78;5181245;28;20404;-50
2022/08/14 11:06:56;;;;;;;8.57;6.07;;;;;;;33.48;33.07;100847.47;5180605;28;20428;-47
2022/08/14 11:09:28;;;;;;;8.55;5.60;;;;;;;33.48;33.31;100851.03;5180539;28;20834;-48
2022/08/14 11:12:02;;;;;;;6.45;5.43;;;;;;;33.48;33.13;100853.75;5178923;28;21881;-47
2022/08/14 11:14:35;;;;;;;6.80;5.43;;;;;;;33.45;33.28;100842.59;5175631;28;20860;-45
2022/08/14 11:17:08;;;;;;;7.53;5.30;;;;;;;33.27;33.18;100844.31;5167678;28;20745;-46
2022/08/14 11:19:40;;;;;;;8.27;5.47;;;;;;;33.34;33.15;100831.03;5176769;28;20873;-45
2022/08/14 11:22:14;;;;;;;9.02;5.18;;;;;;;33.46;32.94;100838.75;5175123;28;20435;-45
2022/08/14 11:24:47;;;;;;;6.80;5.35;;;;;;;33.59;32.83;100837.94;5173697;28;20422;-50
2022/08/14 11:27:21;;;;;;;8.40;5.35;;;;;;;33.59;33.09;100837.94;5188508;28;20693;-48
2022/08/14 11:29:56;;;;;;;12.00;5.47;;;;;;;33.58;32.70;100835.53;5185454;28;20755;-45
2022/08/14 11:32:29;;;;;;;6.72;5.00;;;;;;;33.63;32.81;100829.94;5181885;28;20907;-46
2022/08/14 11:35:03;;;;;;;6.95;5.00;;;;;;;33.75;32.74;100835.72;5179736;28;20449;-45
2022/08/14 11:37:35;;;;;;;10.00;5.30;;;;;;;33.74;32.83;100831.34;5181996;28;20981;-45
2022/08/14 11:40:16;;;;;;;5.55;4.40;;;;;;;33.90;32.24;100832.66;5178208;28;20927;-45
2022/08/14 11:42:54;;;;;;;4.97;4.13;;;;;;;33.89;32.30;100832.97;5178882;28;20424;-49
2022/08/14 11:45:31;;;;;;;5.35;4.45;;;;;;;33.96;32.01;100841.56;5177609;28;20499;-47
2022/08/14 11:51:55;;;;;;;4.40;3.45;;;;;;;33.80;32.03;100819.19;5179480;28;20492;-45
2022/08/14 11:54:28;;;;;;;5.15;4.05;;;;;;;33.89;31.70;100830.22;5178223;28;20907;-46
2022/08/14 11:57:00;;;;;;;4.82;4.07;;;;;;;33.97;31.36;100833.06;5173753;28;20838;-46
2022/08/14 11:59:34;;;;;;;7.22;3.97;;;;;;;33.97;31.63;100835.81;5178308;28;20719;-46
2022/08/14 12:02:11;;;;;;;8.55;4.50;;;;;;;34.03;31.16;100835.72;5180842;28;20433;-46
2022/08/14 12:04:50;;;;;;;5.50;4.20;;;;;;;34.01;31.05;100816.00;5187339;28;20894;-47
2022/08/14 12:07:23;;;;;;;7.70;4.20;;;;;;;34.26;30.62;100823.69;5180922;28;20435;-46
2022/08/14 12:09:58;;;;;;;8.40;3.40;;;;;;;34.29;30.51;100814.03;5184051;28;20771;-42
2022/08/14 12:12:31;;;;;;;6.78;3.42;;;;;;;34.15;30.48;100820.34;5186980;28;20473;-46
2022/08/14 12:15:07;;;;;;;4.63;2.80;;;;;;;34.17;30.34;100822.78;5188534;28;20433;-44
2022/08/14 12:17:47;;;;;;;6.65;3.33;;;;;;;34.26;29.84;100818.19;5188859;28;20523;-46
2022/08/14 12:20:28;;;;;;;3.40;3.07;;;;;;;34.25;29.62;100811.06;5190342;28;20766;-47